17 août 2022

Temps Code Temps Temp. Vue Base cloud Vent METAR/SPECI
06:00
M
17 °C 6 km - Var Var 3 kt METAR LFRG 170400Z AUTO VRB03KT 6000 -RA ///CB 17/16 Q1009
05:30
M
17 °C 7 km - 080° 080° 4 kt METAR LFRG 170330Z AUTO 08004KT 050V110 7000 -RA ///CB 17/16 Q1009
05:00
V
17 °C 10 km+ - Var Var 2 kt METAR LFRG 170300Z AUTO VRB02KT 9999 ///CB 17/16 Q1009
04:30
V
17 °C 10 km+ - Var Var 3 kt METAR LFRG 170230Z AUTO VRB03KT 9999 ///TCU 17/16 Q1009
04:00
V
17 °C 10 km+ - 360° 360° 4 kt METAR LFRG 170200Z AUTO 36004KT CAVOK 17/15 Q1009
03:30
V
17 °C 10 km+ - 340° 340° 4 kt METAR LFRG 170130Z AUTO 34004KT CAVOK 17/16 Q1009
03:00
V
18 °C 10 km+ - 340° 340° 5 kt METAR LFRG 170100Z AUTO 34005KT 310V020 9999 ///TCU 18/16 Q1009
02:30
V
19 °C 10 km+ - 320° 320° 6 kt METAR LFRG 170030Z AUTO 32006KT 290V360 9999 ///TCU 19/15 Q1009
02:00
V
19 °C 10 km+ 4.800 ft 260° 260° 8 kt METAR LFRG 170000Z AUTO 26008KT 9999 BKN048 BKN058 OVC110 19/16 Q1009
01:30
V
18 °C 10 km+ 4.900 ft 260° 260° 3 kt METAR LFRG 162330Z AUTO 26003KT 9999 BKN049 BKN056 BKN120 18/15 Q1009
01:00
V
18 °C 10 km+ - 240° 240° 2 kt METAR LFRG 162300Z AUTO 24002KT CAVOK 18/15 Q1009
00:30
V
19 °C 10 km+ - Var Var 1 kt METAR LFRG 162230Z AUTO VRB01KT CAVOK 19/15 Q1010
00:00
V
18 °C 10 km+ 4.900 ft Var Var 2 kt METAR LFRG 162200Z AUTO VRB02KT 9999 BKN049 OVC100 18/15 Q1009

16 août 2022

Temps Code Temps Temp. Vue Base cloud Vent METAR/SPECI
23:30
V
17 °C 10 km+ - 160° 160° 2 kt METAR LFRG 162130Z AUTO 16002KT CAVOK 17/15 Q1009
23:00
V
18 °C 10 km+ - Var 000° 0 kt METAR LFRG 162100Z AUTO 00000KT CAVOK 18/15 Q1009
22:30
V
18 °C 10 km+ - 070° 070° 3 kt METAR LFRG 162030Z AUTO 07003KT 040V100 CAVOK 18/15 Q1009
22:00
V
18 °C 10 km+ - Var 000° 0 kt METAR LFRG 162000Z AUTO 00000KT 9999 ///TCU 18/15 Q1009 TEMPO VRB15G25KT 2000 TSRAGR BKN015CB
21:30
V
18 °C 10 km+ - Var Var 2 kt METAR LFRG 161930Z AUTO VRB02KT 9999 ///CB 18/15 Q1009 TEMPO VRB15G25KT 2000 TSRAGR BKN012 BKN020CB
21:00
V
20 °C 10 km+ - 300° 300° 1 kt METAR LFRG 161900Z AUTO 30001KT 9999 ///CB 20/16 Q1009 TEMPO VRB15G25KT 2000 TSRAGR BKN012 BKN020CB
20:30
V
21 °C 10 km+ - 310° 310° 2 kt METAR LFRG 161830Z AUTO 31002KT CAVOK 21/15 Q1008 TEMPO VRB15G25KT 2000 TSRAGR BKN015CB
20:00
V
22 °C 10 km+ - 210° 210° 5 kt METAR LFRG 161800Z AUTO 21005KT CAVOK 22/14 Q1007 TEMPO VRB15G25KT 2000 TSRAGR BKN015CB
19:30
V
23 °C 10 km+ - 180° 180° 4 kt METAR LFRG 161730Z AUTO 18004KT CAVOK 23/14 Q1007 TEMPO VRB15G25KT 2000 TSRAGR BKN015CB
19:00
V
24 °C 10 km+ - 190° 190° 3 kt METAR LFRG 161700Z AUTO 19003KT 160V220 CAVOK 24/14 Q1007 TEMPO VRB15G25KT 2000 TSRAGR BKN015CB
18:30
V
24 °C 10 km+ - 160° 160° 8 kt METAR LFRG 161630Z AUTO 16008KT CAVOK 24/14 Q1008 TEMPO VRB15G25KT 2000 TSRAGR BKN015CB
18:00
V
24 °C 10 km+ - 160° 160° 9 kt METAR LFRG 161600Z AUTO 16009KT 130V190 9999 ///CB 24/14 Q1008 TEMPO VRB15G25KT 2000 TSRAGR BKN012 BKN020CB
17:30
V
25 °C 10 km+ - 170° 170° 10 kt METAR LFRG 161530Z AUTO 17010KT 130V200 9999 ///CB 25/14 Q1008 TEMPO VRB15G25KT 2000 TSRAGR BKN012 BKN020CB
17:00
V
24 °C 10 km+ 7.600 ft 160° 160° 9 kt METAR LFRG 161500Z AUTO 16009KT 9999 FEW045/// BKN076/// OVC120/// ///CB 24/14 Q1008 TEMPO VRB15G25KT 2000 TSRAGR BKN012 BKN020CB
16:30
V
24 °C 10 km+ 5.200 ft 180° 180° 7 kt METAR LFRG 161430Z AUTO 18007KT 140V200 9999 SCT045 BKN052 BKN068 24/14 Q1008 TEMPO VRB15G25KT 2000 TSRAGR BKN015CB
16:00
V
25 °C 10 km+ 4.600 ft 150° 150° 7 kt METAR LFRG 161400Z AUTO 15007KT 110V210 9999 BKN046 BKN058 25/14 Q1008 TEMPO VRB15G25KT 2000 TSRAGR BKN015CB
15:30
V
25 °C 10 km+ 4.300 ft 160° 160° 6 kt METAR LFRG 161330Z AUTO 16006KT 090V240 9999 BKN043 BKN200 25/14 Q1008 TEMPO VRB15G25KT 2000 TSRAGR BKN015CB
15:00
V
24 °C 10 km+ - 140° 140° 10 kt METAR LFRG 161300Z AUTO 14010KT CAVOK 24/15 Q1008 TEMPO VRB15G25KT 2000 TSRAGR BKN015CB
14:30
V
23 °C 10 km+ - 130° 130° 9 kt METAR LFRG 161230Z AUTO 13009KT 100V170 CAVOK 23/16 Q1008 TEMPO VRB15G25KT 2000 TSRAGR BKN015CB
14:00
V
22 °C 10 km+ 10.000 ft 120° 120° 10 kt METAR LFRG 161200Z AUTO 12010KT 100V160 9999 FEW022 SCT028 OVC100 22/16 Q1008 TEMPO VRB15G25KT 2000 TSRAGR BKN015CB
13:30
V
21 °C 10 km+ 3.700 ft 140° 140° 7 kt METAR LFRG 161130Z AUTO 14007KT 9999 FEW025 BKN037 BKN074 21/17 Q1009 TEMPO VRB15G25KT 2000 TSRAGR BKN015CB
13:00
V
21 °C 10 km+ 3.700 ft 160° 160° 6 kt METAR LFRG 161100Z AUTO 16006KT 9999 -RA BKN037 BKN070 BKN086 21/17 Q1009 TEMPO VRB15G25KT 2000 TSRAGR BKN012 BKN020CB
12:30
V
21 °C 10 km+ 10.000 ft 190° 190° 7 kt METAR LFRG 161030Z AUTO 19007KT 140V220 9999 SCT019 BKN100 BKN130 21/17 Q1008 TEMPO VRB15G25KT 2000 TSRAGR BKN012 BKN020CB
12:00
V
21 °C 10 km+ 11.000 ft 200° 200° 8 kt METAR LFRG 161000Z AUTO 20008KT 9999 SCT017 BKN110 BKN150 21/17 Q1008 TEMPO VRB15G25KT 2000 TSRAGR BKN012 BKN020CB
11:30
M
20 °C 10 km+ 2.000 ft 190° 190° 5 kt METAR LFRG 160930Z AUTO 19005KT 150V230 9999 BKN020 BKN026 BKN110 20/17 Q1008 TEMPO VRB15G25KT 2000 TSRAGR BKN012 BKN020CB
11:00
V
20 °C 10 km+ 4.400 ft 200° 200° 6 kt METAR LFRG 160900Z AUTO 20006KT 120V230 9999 -RA FEW022 SCT034 BKN044 20/17 Q1008 TEMPO VRB15G25KT 2000 TSRAGR BKN012 BKN020CB
10:30
V
20 °C 10 km+ 4.900 ft 200° 200° 6 kt METAR LFRG 160830Z AUTO 20006KT 9999 FEW028 BKN049 OVC140 20/16 Q1008 TEMPO VRB15G25KT 2000 TSRAGR BKN012 BKN020CB
10:00
V
19 °C 10 km+ - 180° 180° 5 kt METAR LFRG 160800Z AUTO 18005KT CAVOK 19/16 Q1008 TEMPO BKN008
09:30
V
19 °C 10 km+ - 170° 170° 5 kt METAR LFRG 160730Z AUTO 17005KT 140V210 CAVOK 19/16 Q1007 TEMPO BKN008
09:00
V
19 °C 10 km+ 16.000 ft 180° 180° 5 kt METAR LFRG 160700Z AUTO 18005KT 9999 FEW039 OVC160 19/16 Q1007 TEMPO BKN008
08:30
V
19 °C 10 km+ 17.000 ft 170° 170° 5 kt METAR LFRG 160630Z AUTO 17005KT 9999 SCT035 OVC170 19/16 Q1007 TEMPO BKN008
08:00
V
18 °C 10 km+ - 190° 190° 6 kt METAR LFRG 160600Z AUTO 19006KT 9999 ///TCU 18/16 Q1007 TEMPO BKN008
07:30
V
18 °C 10 km+ 17.000 ft 180° 180° 7 kt METAR LFRG 160530Z AUTO 18007KT 9999 FEW038 SCT044 OVC170 18/16 Q1007 TEMPO BKN008
07:00
V
18 °C 10 km+ 4.000 ft 200° 200° 3 kt METAR LFRG 160500Z AUTO 20003KT 9999 BKN040 BKN120 BKN170 18/16 Q1007
06:30
V
18 °C 10 km+ 10.000 ft 180° 180° 3 kt METAR LFRG 160430Z AUTO 18003KT 9999 FEW031 BKN100 BKN140 18/16 Q1007
06:00
V
18 °C 10 km+ 3.100 ft 180° 180° 7 kt METAR LFRG 160400Z AUTO 18007KT 9999 BKN031 OVC042 18/16 Q1007
05:30
V
18 °C 10 km+ 3.400 ft 180° 180° 6 kt METAR LFRG 160330Z AUTO 18006KT 9999 OVC034 18/16 Q1007
05:00
V
18 °C 10 km+ 3.600 ft 190° 190° 4 kt METAR LFRG 160300Z AUTO 19004KT 9999 BKN036 BKN100 18/16 Q1007
04:30
V
18 °C 10 km+ 10.000 ft 160° 160° 4 kt METAR LFRG 160230Z AUTO 16004KT 9999 SCT037 BKN100 18/16 Q1007
04:00
V
18 °C 10 km+ 10.000 ft 170° 170° 5 kt METAR LFRG 160200Z AUTO 17005KT 9999 FEW037 OVC100 18/16 Q1007
03:30
V
18 °C 10 km+ - 130° 130° 3 kt METAR LFRG 160130Z AUTO 13003KT CAVOK 18/16 Q1007
03:00
V
18 °C 10 km+ - 130° 130° 3 kt METAR LFRG 160100Z AUTO 13003KT 100V160 CAVOK 18/16 Q1007
02:30
V
18 °C 10 km+ - 180° 180° 5 kt METAR LFRG 160030Z AUTO 18005KT CAVOK 18/16 Q1007
02:00
V
18 °C 10 km+ - Var 000° 0 kt METAR LFRG 160000Z AUTO 00000KT CAVOK 18/16 Q1008
01:30
V
18 °C 10 km+ - 160° 160° 3 kt METAR LFRG 152330Z AUTO 16003KT CAVOK 18/16 Q1008
01:00
V
18 °C 10 km+ - 150° 150° 2 kt METAR LFRG 152300Z AUTO 15002KT CAVOK 18/16 Q1008
00:30
V
18 °C 10 km+ - Var 000° 0 kt METAR LFRG 152230Z AUTO 00000KT CAVOK 18/17 Q1008
00:00
V
18 °C 10 km+ - 120° 120° 2 kt METAR LFRG 152200Z AUTO 12002KT CAVOK 18/17 Q1008

15 août 2022

Temps Code Temps Temp. Vue Base cloud Vent METAR/SPECI
23:30
V
18 °C 10 km+ - 130° 130° 3 kt METAR LFRG 152130Z AUTO 13003KT CAVOK 18/17 Q1007
23:00
V
18 °C 10 km+ - 040° 040° 1 kt METAR LFRG 152100Z AUTO 04001KT CAVOK 18/17 Q1007
22:30
V
18 °C 10 km+ - 250° 250° 2 kt METAR LFRG 152030Z AUTO 25002KT CAVOK 18/17 Q1007
22:00
V
19 °C 10 km+ - 300° 300° 2 kt METAR LFRG 152000Z AUTO 30002KT CAVOK 19/17 Q1007 NOSIG
21:30
V
19 °C 10 km+ - Var 000° 0 kt METAR LFRG 151930Z AUTO 00000KT CAVOK 19/17 Q1007 NOSIG
21:00
V
20 °C 10 km+ - 260° 260° 2 kt METAR LFRG 151900Z AUTO 26002KT 9999 -RA NSC 20/17 Q1007 TEMPO 4000 SHRA BKN040CB
20:30
V
20 °C 10 km+ - 310° 310° 2 kt METAR LFRG 151830Z AUTO 31002KT 9999 -RA NSC 20/17 Q1006 TEMPO 4000 SHRA BKN040CB
20:00
V
21 °C 10 km+ - 300° 300° 4 kt METAR LFRG 151800Z AUTO 30004KT CAVOK 21/17 Q1006 TEMPO 4000 SHRA BKN040CB
19:30
V
21 °C 10 km+ - 290° 290° 3 kt METAR LFRG 151730Z AUTO 29003KT CAVOK 21/17 Q1006 TEMPO 4000 SHRA BKN040CB
19:00
V
22 °C 10 km+ - 300° 300° 3 kt METAR LFRG 151700Z AUTO 30003KT 250V340 CAVOK 22/17 Q1006 TEMPO 4000 SHRA BKN040CB
18:30
V
22 °C 10 km+ - 320° 320° 5 kt METAR LFRG 151630Z AUTO 32005KT CAVOK 22/17 Q1006 TEMPO 4000 SHRA BKN040CB
18:00
V
23 °C 10 km+ - 300° 300° 5 kt METAR LFRG 151600Z AUTO 30005KT 240V360 CAVOK 23/17 Q1006 TEMPO 4000 SHRA BKN040CB
17:30
V
22 °C 10 km+ - Var Var 2 kt METAR LFRG 151530Z AUTO VRB02KT CAVOK 22/17 Q1005 TEMPO 4000 SHRA BKN040CB
17:00
V
23 °C 10 km+ 15.000 ft 290° 290° 5 kt METAR LFRG 151500Z AUTO 29005KT 250V330 9999 FEW026 SCT110 BKN150 23/16 Q1006 TEMPO SHRA SCT040CB
16:30
V
24 °C 10 km+ - 270° 270° 6 kt METAR LFRG 151430Z AUTO 27006KT 240V310 CAVOK 24/16 Q1005 TEMPO SHRA SCT040CB
16:00
V
23 °C 10 km+ - 300° 300° 5 kt METAR LFRG 151400Z AUTO 30005KT 270V340 9999 FEW037 23/16 Q1006 TEMPO 4000 SHRA SCT040CB
15:30
M
23 °C 10 km+ 2.900 ft 220° 220° 4 kt METAR LFRG 151330Z AUTO 22004KT 170V270 9999 BKN029 23/16 Q1006 TEMPO 4000 SHRA SCT040CB
15:00
M
22 °C 10 km+ 2.800 ft 210° 210° 9 kt METAR LFRG 151300Z AUTO 21009KT 160V250 9999 BKN028 22/16 Q1006 TEMPO 4000 SHRA SCT040CB
14:30
V
23 °C 10 km+ - 210° 210° 8 kt METAR LFRG 151230Z AUTO 21008KT 160V240 9999 FEW021 23/16 Q1006 TEMPO 4000 SHRA SCT040CB BECMG 30010KT
14:00
M
22 °C 10 km+ 1.800 ft 210° 210° 10 kt METAR LFRG 151200Z AUTO 21010KT 170V260 9999 BKN018 22/16 Q1006 NOSIG
13:30
M
22 °C 10 km+ 2.000 ft 200° 200° 8 kt METAR LFRG 151130Z AUTO 20008KT 180V240 9999 OVC020 22/17 Q1006 BECMG 30010KT
13:00
M
21 °C 10 km+ 1.900 ft 220° 220° 8 kt METAR LFRG 151100Z AUTO 22008KT 180V260 9999 OVC019 21/16 Q1005 NOSIG
12:30
M
22 °C 10 km+ 1.600 ft 200° 200° 11 kt METAR LFRG 151030Z AUTO 20011KT 170V230 9999 BKN016 OVC130 22/17 Q1005 BECMG 30010KT
12:00
M
21 °C 10 km+ 1.400 ft 190° 190° 9 kt METAR LFRG 151000Z AUTO 19009KT 170V240 9999 OVC014 21/17 Q1005 BECMG 30010KT SCT015
11:30
M
20 °C 10 km+ 1.200 ft 200° 200° 6 kt METAR LFRG 150930Z AUTO 20006KT 160V240 9999 OVC012 20/17 Q1005 BECMG 30010KT SCT015
11:00
M
19 °C 10 km+ 1.000 ft 220° 220° 9 kt METAR LFRG 150900Z AUTO 22009KT 190V260 9999 OVC010 19/16 Q1005 BECMG SCT015
10:30
M
20 °C 10 km+ 1.100 ft 230° 230° 6 kt METAR LFRG 150830Z AUTO 23006KT 130V290 9999 BKN011 BKN160 20/17 Q1005 BECMG SCT015
10:00
V
19 °C 10 km+ - 190° 190° 5 kt METAR LFRG 150800Z AUTO 19005KT 160V240 CAVOK 19/16 Q1005 NOSIG
09:30
M
18 °C 10 km+ 1.100 ft 200° 200° 5 kt METAR LFRG 150730Z AUTO 20005KT 160V230 9999 BKN011 BKN018 18/16 Q1005 BECMG NSC
09:00
M
17 °C 9 km 1.400 ft 180° 180° 7 kt METAR LFRG 150700Z AUTO 18007KT 9000 BKN014 17/16 Q1005 BECMG NSC
08:30
M
17 °C 9 km 1.600 ft 180° 180° 6 kt METAR LFRG 150630Z AUTO 18006KT 9000 BKN016 17/16 Q1005 NOSIG
08:00
M
16 °C 7 km - 200° 200° 4 kt METAR LFRG 150600Z AUTO 20004KT 170V230 7000 FEW005 16/16 Q1005 NOSIG
07:30
V
16 °C 8 km - 200° 200° 5 kt METAR LFRG 150530Z AUTO 20005KT 8000 NSC 16/16 Q1005 NOSIG
07:00
M
16 °C 7 km - 180° 180° 8 kt METAR LFRG 150500Z AUTO 18008KT 7000 NSC 16/15 Q1004
06:30
V
16 °C 8 km - 190° 190° 8 kt METAR LFRG 150430Z AUTO 19008KT 8000 NSC 16/15 Q1004
06:00
V
16 °C 8 km - 190° 190° 8 kt METAR LFRG 150400Z AUTO 19008KT 8000 NSC 16/16 Q1005
05:30
V
16 °C 9 km - 180° 180° 9 kt METAR LFRG 150330Z AUTO 18009KT 9000 NSC 16/16 Q1004
05:00
V
17 °C 10 km+ - 190° 190° 7 kt METAR LFRG 150300Z AUTO 19007KT CAVOK 17/16 Q1005
04:30
V
17 °C 10 km+ - 170° 170° 8 kt METAR LFRG 150230Z AUTO 17008KT CAVOK 17/16 Q1005
04:00
V
17 °C 10 km+ - 180° 180° 7 kt METAR LFRG 150200Z AUTO 18007KT CAVOK 17/16 Q1005
03:30
V
17 °C 10 km+ - 190° 190° 8 kt METAR LFRG 150130Z AUTO 19008KT CAVOK 17/16 Q1006
03:00
V
17 °C 10 km+ - 180° 180° 8 kt METAR LFRG 150100Z AUTO 18008KT CAVOK 17/16 Q1006
02:30
V
17 °C 10 km+ - 180° 180° 5 kt METAR LFRG 150030Z AUTO 18005KT CAVOK 17/17 Q1006
02:00
V
18 °C 10 km+ - 170° 170° 6 kt METAR LFRG 150000Z AUTO 17006KT CAVOK 18/16 Q1006
01:30
V
18 °C 10 km+ - 190° 190° 5 kt METAR LFRG 142330Z AUTO 19005KT CAVOK 18/17 Q1006
01:00
V
18 °C 10 km+ - 200° 200° 5 kt METAR LFRG 142300Z AUTO 20005KT CAVOK 18/17 Q1006
00:30
V
18 °C 10 km+ - 180° 180° 6 kt METAR LFRG 142230Z AUTO 18006KT CAVOK 18/17 Q1006
00:00
V
19 °C 10 km+ - 190° 190° 4 kt METAR LFRG 142200Z AUTO 19004KT CAVOK 19/16 Q1006
Données plus anciennes

Nous et des tiers suivons ton comportement sur Internet sur notre site Web à l'aide de cookies. Si tu continues, nous supposons que tu acceptes notre politique en matière de cookies. Apprendre plus